Time;durP1;ratioP1;P1;durP2;ratioP2;P2;SDS_P1;SDS_P2;PMS_P1;PMS_P2;Temp;Humidity;BMP_temperature;BMP_pressure;BME280_temperature;BME280_humidity;BME280_pressure;Samples;Min_cycle;Max_cycle;Signal;HPM_P1;HPM_P2
2022/08/28 00:01:37;;;;;;;9.57;3.47;;;13.90;90.10;;;;;;4896917;29;20033;-67
2022/08/28 00:04:03;;;;;;;9.98;4.05;;;13.90;90.10;;;;;;4896366;29;20115;-67
2022/08/28 00:06:28;;;;;;;9.65;3.53;;;13.90;90.30;;;;;;4897332;29;20112;-67
2022/08/28 00:08:54;;;;;;;8.30;4.25;;;13.80;90.20;;;;;;4896738;29;20052;-66
2022/08/28 00:11:20;;;;;;;12.32;4.45;;;13.80;90.20;;;;;;4897516;29;20779;-65
2022/08/28 00:13:47;;;;;;;10.18;3.70;;;13.80;90.30;;;;;;4897160;29;20393;-65
2022/08/28 00:16:12;;;;;;;6.97;3.22;;;13.80;90.40;;;;;;4896849;29;20053;-67
2022/08/28 00:18:38;;;;;;;9.15;3.42;;;13.80;90.40;;;;;;4897244;29;20024;-66
2022/08/28 00:21:04;;;;;;;5.88;3.00;;;13.80;90.50;;;;;;4897333;29;20461;-67
2022/08/28 00:23:31;;;;;;;8.43;3.58;;;13.70;90.50;;;;;;4896604;29;20433;-68
2022/08/28 00:25:58;;;;;;;7.90;3.70;;;13.70;90.60;;;;;;4897132;29;20858;-65
2022/08/28 00:28:24;;;;;;;10.27;4.43;;;13.60;90.80;;;;;;4895740;29;20028;-65
2022/08/28 00:30:53;;;;;;;10.57;4.00;;;13.60;91.00;;;;;;4896681;29;20034;-66
2022/08/28 00:33:22;;;;;;;9.60;3.70;;;13.50;91.00;;;;;;4897183;29;20027;-67
2022/08/28 00:35:49;;;;;;;9.10;3.47;;;13.50;91.10;;;;;;4896499;29;20029;-66
2022/08/28 00:38:19;;;;;;;12.20;4.30;;;13.40;91.20;;;;;;4896976;29;20024;-67
2022/08/28 00:40:48;;;;;;;7.97;3.83;;;13.40;91.40;;;;;;4896858;29;20430;-64
2022/08/28 00:43:40;;;;;;;7.20;3.80;;;13.40;91.50;;;;;;4896151;29;20028;-63
2022/08/28 00:46:13;;;;;;;8.57;3.75;;;13.40;91.50;;;;;;4896920;29;20028;-67
2022/08/28 00:48:39;;;;;;;9.65;3.65;;;13.30;91.50;;;;;;4896667;29;20024;-67
2022/08/28 00:53:51;;;;;;;8.48;3.13;;;13.20;91.90;;;;;;4896893;29;20508;-67
2022/08/28 00:56:18;;;;;;;7.43;3.70;;;13.30;92.00;;;;;;4896575;29;20028;-67
2022/08/28 00:58:46;;;;;;;7.47;3.17;;;13.20;92.20;;;;;;4896123;29;20107;-64
2022/08/28 01:01:13;;;;;;;9.73;4.10;;;13.20;92.20;;;;;;4896881;29;20028;-65
2022/08/28 01:03:41;;;;;;;9.75;4.43;;;13.20;92.30;;;;;;4896493;29;20080;-65
2022/08/28 01:06:07;;;;;;;7.95;4.03;;;13.20;92.30;;;;;;4896467;29;20032;-66
2022/08/28 01:08:35;;;;;;;6.63;3.80;;;13.20;92.40;;;;;;4896185;29;20052;-66
2022/08/28 01:11:03;;;;;;;10.07;4.22;;;13.20;92.50;;;;;;4894754;29;20067;-66
2022/08/28 01:13:30;;;;;;;10.23;3.90;;;13.10;92.70;;;;;;4896436;29;20088;-67
2022/08/28 01:15:57;;;;;;;9.30;3.63;;;13.10;92.70;;;;;;4896797;29;20359;-64
2022/08/28 01:18:23;;;;;;;7.80;4.10;;;13.10;92.80;;;;;;4895916;29;20511;-64
2022/08/28 01:21:00;;;;;;;11.48;3.88;;;13.10;92.90;;;;;;4896646;29;20489;-66
2022/08/28 01:23:42;;;;;;;7.88;3.47;;;13.00;93.00;;;;;;4896659;29;20025;-67
2022/08/28 01:26:07;;;;;;;6.70;3.78;;;13.00;93.10;;;;;;4895718;29;20021;-68
2022/08/28 01:28:33;;;;;;;8.02;4.53;;;13.00;93.10;;;;;;4896105;29;20039;-63
2022/08/28 01:30:59;;;;;;;13.45;4.55;;;13.00;93.40;;;;;;4896518;29;20166;-67
2022/08/28 01:33:24;;;;;;;13.18;4.85;;;12.90;93.40;;;;;;4899441;29;20494;-66
2022/08/28 01:35:50;;;;;;;7.40;3.63;;;12.90;93.60;;;;;;4900132;29;20043;-65
2022/08/28 01:38:16;;;;;;;8.35;3.92;;;12.90;93.70;;;;;;4900413;29;20123;-67
2022/08/28 01:40:45;;;;;;;7.30;3.60;;;12.80;93.60;;;;;;4899807;29;20025;-67
2022/08/28 01:43:15;;;;;;;10.13;3.80;;;12.80;93.70;;;;;;4900262;29;20039;-67
2022/08/28 01:45:43;;;;;;;8.63;3.85;;;12.80;93.80;;;;;;4898702;29;20100;-67
2022/08/28 01:48:09;;;;;;;7.97;3.97;;;12.80;93.90;;;;;;4898280;29;20025;-65
2022/08/28 01:50:35;;;;;;;9.93;4.15;;;12.70;93.90;;;;;;4899841;29;20192;-68
2022/08/28 01:53:03;;;;;;;12.52;3.60;;;12.70;94.00;;;;;;4899414;29;20148;-68
2022/08/28 01:55:31;;;;;;;8.57;4.45;;;12.70;94.10;;;;;;4899943;29;20025;-67
2022/08/28 01:57:57;;;;;;;15.52;4.68;;;12.70;94.10;;;;;;4900107;29;20096;-64
2022/08/28 02:00:27;;;;;;;11.35;4.75;;;12.70;94.30;;;;;;4899285;29;20028;-65
2022/08/28 02:02:55;;;;;;;12.95;4.25;;;12.70;94.40;;;;;;4899917;29;20029;-67
2022/08/28 02:05:25;;;;;;;8.57;4.15;;;12.60;94.50;;;;;;4899846;29;20037;-65
2022/08/28 02:07:51;;;;;;;9.88;4.20;;;12.60;94.50;;;;;;4898742;29;20135;-66
2022/08/28 02:10:17;;;;;;;9.63;3.97;;;12.60;94.70;;;;;;4899772;29;20077;-66
2022/08/28 02:12:43;;;;;;;7.43;3.50;;;12.60;94.70;;;;;;4899599;29;20024;-66
2022/08/28 02:15:09;;;;;;;11.23;4.32;;;12.50;94.80;;;;;;4897840;29;20021;-64
2022/08/28 02:17:35;;;;;;;10.77;4.47;;;12.50;94.90;;;;;;4899005;29;20032;-64
2022/08/28 02:20:01;;;;;;;9.45;4.20;;;12.50;95.00;;;;;;4899475;29;20076;-66
2022/08/28 02:22:26;;;;;;;9.15;3.17;;;12.50;95.20;;;;;;4898742;29;20070;-62
2022/08/28 02:24:52;;;;;;;10.60;3.67;;;12.40;95.10;;;;;;4899229;29;20119;-67
2022/08/28 02:27:18;;;;;;;6.75;3.55;;;12.40;95.20;;;;;;4899516;29;20024;-66
2022/08/28 02:29:43;;;;;;;10.48;3.70;;;12.40;95.20;;;;;;4898452;29;20087;-67
2022/08/28 02:32:09;;;;;;;8.70;4.20;;;12.40;95.20;;;;;;4899531;29;20100;-68
2022/08/28 02:34:35;;;;;;;9.40;3.78;;;12.40;95.30;;;;;;4899044;29;20035;-68
2022/08/28 02:37:01;;;;;;;8.50;3.95;;;12.30;95.50;;;;;;4898628;29;20486;-65
2022/08/28 02:39:27;;;;;;;13.27;4.70;;;12.40;95.60;;;;;;4899056;29;20060;-64
2022/08/28 02:41:52;;;;;;;9.57;3.97;;;12.30;95.60;;;;;;4899281;29;20027;-67
2022/08/28 02:44:18;;;;;;;12.25;4.43;;;12.30;95.60;;;;;;4898494;29;20080;-64
2022/08/28 02:46:43;;;;;;;10.25;4.25;;;12.30;95.60;;;;;;4898754;29;20048;-67
2022/08/28 02:49:09;;;;;;;9.20;4.00;;;12.20;95.70;;;;;;4899118;29;20029;-67
2022/08/28 02:51:34;;;;;;;7.13;3.55;;;12.20;95.80;;;;;;4898302;29;20486;-68
2022/08/28 02:54:01;;;;;;;7.65;3.05;;;12.20;95.80;;;;;;4898931;29;20033;-66
2022/08/28 02:56:27;;;;;;;11.80;4.32;;;12.20;96.00;;;;;;4898154;29;20025;-63
2022/08/28 02:58:53;;;;;;;7.13;3.72;;;12.20;96.20;;;;;;4898964;29;20102;-66
2022/08/28 03:01:18;;;;;;;7.10;3.17;;;12.20;96.20;;;;;;4898986;29;20107;-67
2022/08/28 03:03:44;;;;;;;8.43;4.13;;;12.10;96.20;;;;;;4898013;29;20518;-63
2022/08/28 03:06:11;;;;;;;7.30;3.58;;;12.10;96.30;;;;;;4898677;29;20359;-67
2022/08/28 03:08:37;;;;;;;9.15;3.53;;;12.10;96.30;;;;;;4898294;29;20048;-67
2022/08/28 03:11:03;;;;;;;9.77;3.83;;;12.10;96.30;;;;;;4898576;29;20025;-67
2022/08/28 03:13:29;;;;;;;7.00;3.33;;;12.10;96.30;;;;;;4898470;29;20024;-65
2022/08/28 03:15:55;;;;;;;8.95;3.58;;;12.10;96.40;;;;;;4898775;29;20036;-64
2022/08/28 03:18:20;;;;;;;7.72;3.30;;;12.10;96.40;;;;;;4897952;29;20423;-68
2022/08/28 03:20:46;;;;;;;6.85;4.18;;;12.00;96.60;;;;;;4898338;29;20519;-67
2022/08/28 03:23:27;;;;;;;6.68;3.30;;;12.00;96.60;;;;;;4898416;29;20039;-67
2022/08/28 03:25:54;;;;;;;;;;;11.90;96.60;;;;;;4898505;29;20029;-66
2022/08/28 03:28:19;;;;;;;8.98;2.70;;;11.90;96.50;;;;;;4898560;29;19966;-67
2022/08/28 03:30:45;;;;;;;8.25;3.17;;;11.80;96.50;;;;;;4898062;29;20033;-67
2022/08/28 03:33:10;;;;;;;9.30;3.03;;;11.80;96.60;;;;;;4897721;29;20518;-68
2022/08/28 03:35:36;;;;;;;8.93;3.10;;;11.70;96.70;;;;;;4898012;29;20028;-67
2022/08/28 03:38:03;;;;;;;5.60;3.28;;;11.60;96.70;;;;;;4912521;29;20029;-67
2022/08/28 03:40:29;;;;;;;5.47;2.92;;;11.50;96.60;;;;;;4897580;29;20032;-67
2022/08/28 03:42:55;;;;;;;9.63;3.63;;;11.50;96.70;;;;;;4898160;29;20049;-67
2022/08/28 03:45:21;;;;;;;6.25;2.65;;;11.40;96.60;;;;;;4898180;29;20041;-68
2022/08/28 03:47:46;;;;;;;6.13;3.30;;;11.40;96.70;;;;;;4897053;29;20060;-67
2022/08/28 03:50:12;;;;;;;6.95;2.95;;;11.30;96.80;;;;;;4897987;29;20060;-68
2022/08/28 03:52:39;;;;;;;7.50;3.40;;;11.30;96.80;;;;;;4897002;29;20029;-67
2022/08/28 03:55:07;;;;;;;6.47;3.53;;;11.30;96.90;;;;;;4897316;29;20077;-67
2022/08/28 03:57:33;;;;;;;7.63;3.05;;;11.30;97.10;;;;;;4897547;29;20025;-67
2022/08/28 03:59:59;;;;;;;6.07;2.92;;;11.30;97.10;;;;;;4897226;29;20025;-67
2022/08/28 04:02:25;;;;;;;5.00;2.83;;;11.30;97.10;;;;;;4896458;29;20398;-68
2022/08/28 04:04:50;;;;;;;4.93;2.45;;;11.30;97.20;;;;;;4897562;29;20047;-66
2022/08/28 04:07:17;;;;;;;5.65;3.13;;;11.30;97.10;;;;;;4897019;29;20379;-65
2022/08/28 04:09:43;;;;;;;4.10;2.60;;;11.30;97.00;;;;;;4897277;29;20040;-66
2022/08/28 04:12:09;;;;;;;4.82;2.72;;;11.20;96.90;;;;;;4911986;29;20021;-66
2022/08/28 04:14:35;;;;;;;5.90;3.08;;;11.20;97.00;;;;;;4896803;29;20035;-66
2022/08/28 04:17:01;;;;;;;8.20;3.45;;;11.20;97.10;;;;;;4897169;29;20111;-67
2022/08/28 04:19:26;;;;;;;6.60;3.20;;;11.20;97.20;;;;;;4897316;29;20461;-62
2022/08/28 04:21:52;;;;;;;6.30;2.90;;;11.30;97.30;;;;;;4896751;29;20036;-67
2022/08/28 04:24:18;;;;;;;6.95;3.10;;;11.30;97.30;;;;;;4897369;29;20068;-65
2022/08/28 04:26:43;;;;;;;9.25;3.40;;;11.30;97.50;;;;;;4896996;29;20028;-66
2022/08/28 04:29:09;;;;;;;7.75;3.55;;;11.20;97.50;;;;;;4896810;29;20020;-67
2022/08/28 04:31:35;;;;;;;6.43;3.30;;;11.30;97.60;;;;;;4896982;29;20036;-65
2022/08/28 04:34:03;;;;;;;8.77;3.38;;;11.30;97.70;;;;;;4896899;29;20038;-67
2022/08/28 04:36:29;;;;;;;7.15;2.97;;;11.20;97.70;;;;;;4896335;29;20029;-67
2022/08/28 04:38:57;;;;;;;5.43;2.85;;;11.20;97.60;;;;;;4897190;29;20084;-66
2022/08/28 04:41:22;;;;;;;4.78;2.60;;;11.20;97.60;;;;;;4897120;29;20075;-63
2022/08/28 04:43:49;;;;;;;4.85;2.80;;;11.10;97.60;;;;;;4896056;29;20068;-65
2022/08/28 04:46:15;;;;;;;5.60;2.30;;;11.10;97.60;;;;;;4897140;29;20028;-68
2022/08/28 04:48:41;;;;;;;5.10;2.60;;;11.10;97.50;;;;;;4896587;29;20119;-67
2022/08/28 04:51:09;;;;;;;5.95;3.17;;;11.00;97.50;;;;;;4896275;29;20028;-66
2022/08/28 04:53:36;;;;;;;6.80;3.05;;;11.00;97.60;;;;;;4896707;29;20494;-66
2022/08/28 04:56:05;;;;;;;5.82;3.00;;;11.00;97.80;;;;;;4896530;29;20453;-66
2022/08/28 04:58:32;;;;;;;6.00;3.08;;;11.00;97.80;;;;;;4896426;29;20032;-66
2022/08/28 05:00:57;;;;;;;6.43;3.00;;;11.00;97.80;;;;;;4895165;29;20698;-67
2022/08/28 05:03:23;;;;;;;5.80;3.22;;;11.00;98.00;;;;;;4894780;29;20103;-66
2022/08/28 05:05:51;;;;;;;7.43;3.35;;;11.00;97.80;;;;;;4894771;29;20156;-67
2022/08/28 05:08:19;;;;;;;6.55;2.78;;;11.00;97.80;;;;;;4896580;29;20037;-64
2022/08/28 05:10:45;;;;;;;5.57;2.78;;;11.00;97.90;;;;;;4894635;29;20378;-67
2022/08/28 05:13:14;;;;;;;6.20;3.22;;;11.10;97.90;;;;;;4896468;29;20031;-67
2022/08/28 05:15:43;;;;;;;6.82;3.13;;;11.10;98.20;;;;;;4896388;29;20092;-66
2022/08/28 05:18:09;;;;;;;5.72;3.17;;;11.20;98.10;;;;;;4896080;29;20025;-67
2022/08/28 05:20:36;;;;;;;6.10;3.30;;;11.20;98.10;;;;;;4896475;29;20108;-67
2022/08/28 05:23:03;;;;;;;7.65;3.30;;;11.20;98.20;;;;;;4896559;29;20458;-66
2022/08/28 05:25:31;;;;;;;5.93;3.45;;;11.30;98.10;;;;;;4895712;29;20044;-66
2022/08/28 05:27:57;;;;;;;9.68;3.25;;;11.30;98.10;;;;;;4896120;29;20089;-66
2022/08/28 05:30:22;;;;;;;6.22;3.05;;;11.40;98.10;;;;;;4896813;29;20036;-66
2022/08/28 05:32:48;;;;;;;6.10;3.38;;;11.30;98.10;;;;;;4895586;29;20020;-68
2022/08/28 05:35:14;;;;;;;7.30;3.20;;;11.40;98.00;;;;;;4896473;29;20064;-66
2022/08/28 05:37:40;;;;;;;5.80;3.20;;;11.50;98.00;;;;;;4896081;29;20033;-66
2022/08/28 05:40:06;;;;;;;7.03;3.35;;;11.50;98.00;;;;;;4895873;29;20074;-66
2022/08/28 05:42:31;;;;;;;5.78;3.03;;;11.60;97.90;;;;;;4896115;29;20024;-67
2022/08/28 05:44:58;;;;;;;6.95;3.17;;;11.70;97.90;;;;;;4896447;29;20052;-66
2022/08/28 05:47:24;;;;;;;6.88;2.97;;;11.80;97.90;;;;;;4895689;29;20104;-67
2022/08/28 05:49:49;;;;;;;7.15;3.08;;;11.90;97.90;;;;;;4896043;29;20080;-67
2022/08/28 05:52:15;;;;;;;8.07;3.70;;;11.90;98.00;;;;;;4895772;29;20104;-67
2022/08/28 05:54:42;;;;;;;7.10;3.60;;;12.00;98.10;;;;;;4896069;29;20143;-67
2022/08/28 05:57:07;;;;;;;8.65;3.72;;;12.10;98.10;;;;;;4896120;29;20479;-65
2022/08/28 05:59:33;;;;;;;10.13;3.60;;;12.20;98.20;;;;;;4895328;29;20063;-67
2022/08/28 06:01:58;;;;;;;6.25;3.40;;;12.30;98.20;;;;;;4896168;29;20470;-67
2022/08/28 06:04:26;;;;;;;8.00;3.50;;;12.30;98.10;;;;;;4895978;29;20052;-68
2022/08/28 06:06:52;;;;;;;6.80;2.85;;;12.40;98.10;;;;;;4895642;29;20029;-68
2022/08/28 06:09:21;;;;;;;11.07;3.55;;;12.50;98.10;;;;;;4896353;29;20124;-68
2022/08/28 06:11:48;;;;;;;5.47;3.28;;;12.60;98.10;;;;;;4895738;29;20029;-67
2022/08/28 06:14:18;;;;;;;6.07;3.38;;;12.70;97.90;;;;;;4894682;29;20486;-63
2022/08/28 06:16:47;;;;;;;11.07;3.17;;;12.80;97.80;;;;;;4889741;29;20039;-62
2022/08/28 06:19:13;;;;;;;7.20;3.40;;;12.90;97.70;;;;;;4881593;29;20084;-62
2022/08/28 06:21:40;;;;;;;6.93;2.97;;;13.00;97.80;;;;;;4891001;29;20462;-63
2022/08/28 06:24:07;;;;;;;7.10;3.50;;;13.10;97.70;;;;;;4899473;29;20112;-64
2022/08/28 06:26:33;;;;;;;6.22;2.67;;;13.20;97.60;;;;;;4897961;29;20036;-61
2022/08/28 06:29:01;;;;;;;8.95;3.67;;;13.30;97.60;;;;;;4899110;29;20028;-63
2022/08/28 06:31:27;;;;;;;5.13;3.17;;;13.40;97.60;;;;;;4899529;29;20016;-61
2022/08/28 06:33:54;;;;;;;6.90;3.67;;;13.50;97.60;;;;;;4899126;29;20462;-62
2022/08/28 06:36:20;;;;;;;9.30;3.55;;;13.60;97.70;;;;;;4898597;29;20025;-62
2022/08/28 06:38:46;;;;;;;6.70;3.25;;;13.70;97.50;;;;;;4898777;29;20362;-66
2022/08/28 06:41:14;;;;;;;8.88;3.33;;;13.80;97.40;;;;;;4899370;29;20039;-64
2022/08/28 06:43:40;;;;;;;7.50;3.03;;;13.90;97.30;;;;;;4898335;29;20052;-64
2022/08/28 06:46:06;;;;;;;11.27;4.15;;;14.00;97.20;;;;;;4899277;29;20079;-64
2022/08/28 06:48:31;;;;;;;6.93;2.97;;;14.10;97.10;;;;;;4898206;29;20037;-66
2022/08/28 06:50:58;;;;;;;8.95;2.97;;;14.20;96.90;;;;;;4899100;29;20044;-64
2022/08/28 06:53:27;;;;;;;7.80;2.83;;;14.30;96.70;;;;;;4899001;29;20031;-62
2022/08/28 06:56:01;;;;;;;8.68;3.00;;;14.30;96.50;;;;;;4898332;29;20025;-66
2022/08/28 06:58:27;;;;;;;6.72;3.00;;;14.40;96.40;;;;;;4898883;29;20036;-62
2022/08/28 07:01:05;;;;;;;6.22;3.13;;;14.60;96.10;;;;;;4898717;29;20025;-63
2022/08/28 07:03:30;;;;;;;9.68;2.80;;;14.70;95.70;;;;;;4897715;29;20029;-66
2022/08/28 07:06:00;;;;;;;4.85;2.58;;;14.80;95.50;;;;;;4913203;29;20044;-62
2022/08/28 07:08:27;;;;;;;6.97;2.80;;;14.90;95.30;;;;;;4898449;29;20651;-64
2022/08/28 07:10:54;;;;;;;5.07;2.33;;;15.00;95.00;;;;;;4898162;29;20059;-66
2022/08/28 07:13:20;;;;;;;12.43;2.40;;;15.10;94.70;;;;;;4898464;29;20496;-63
2022/08/28 07:15:46;;;;;;;7.13;2.50;;;15.20;94.30;;;;;;4898348;29;20111;-65
2022/08/28 07:18:12;;;;;;;7.90;2.72;;;15.30;94.30;;;;;;4897735;29;20020;-68
2022/08/28 07:20:38;;;;;;;5.47;2.38;;;15.30;94.10;;;;;;4897248;29;20492;-66
2022/08/28 07:23:04;;;;;;;10.02;2.28;;;15.50;93.90;;;;;;4896987;29;20039;-61
2022/08/28 07:25:30;;;;;;;5.68;2.50;;;15.60;93.50;;;;;;4895559;29;20096;-66
2022/08/28 07:27:56;;;;;;;6.78;2.70;;;15.70;93.30;;;;;;4890540;29;20436;-65
2022/08/28 07:30:22;;;;;;;8.43;2.47;;;15.80;92.90;;;;;;4897216;29;20037;-61
2022/08/28 07:32:48;;;;;;;5.00;2.38;;;15.90;92.70;;;;;;4882977;29;20073;-62
2022/08/28 07:35:15;;;;;;;5.43;2.50;;;16.00;92.50;;;;;;4896293;29;20033;-61
2022/08/28 07:37:41;;;;;;;8.55;2.63;;;16.10;92.40;;;;;;4896253;29;20027;-62
2022/08/28 07:40:08;;;;;;;6.75;2.00;;;16.20;92.00;;;;;;4896504;29;20123;-62
2022/08/28 07:45:24;;;;;;;9.55;2.42;;;16.40;90.90;;;;;;4894669;29;20041;-62
2022/08/28 07:47:50;;;;;;;5.63;2.10;;;16.60;90.70;;;;;;4892595;29;20028;-61
2022/08/28 07:50:16;;;;;;;5.07;1.75;;;16.70;90.40;;;;;;4897390;29;20040;-62
2022/08/28 07:52:42;;;;;;;6.82;1.98;;;16.80;90.20;;;;;;4895889;29;20021;-60
2022/08/28 07:55:08;;;;;;;3.45;1.50;;;17.00;88.60;;;;;;4898217;29;20039;-60
2022/08/28 07:57:35;;;;;;;5.97;1.85;;;17.00;87.20;;;;;;4897845;29;20020;-61
2022/08/28 08:00:00;;;;;;;4.68;1.50;;;17.20;86.20;;;;;;4897664;29;20033;-61
2022/08/28 08:02:26;;;;;;;3.42;1.67;;;17.30;86.10;;;;;;4898042;29;20024;-61
2022/08/28 08:04:52;;;;;;;5.85;1.90;;;17.40;83.70;;;;;;4898122;29;20051;-61
2022/08/28 08:07:19;;;;;;;5.85;2.65;;;17.50;84.00;;;;;;4897392;29;20024;-60
2022/08/28 08:09:45;;;;;;;3.83;1.75;;;17.50;83.70;;;;;;4897688;29;20053;-60
2022/08/28 08:12:13;;;;;;;3.47;1.50;;;17.60;83.20;;;;;;4898031;29;20017;-61
2022/08/28 08:14:39;;;;;;;5.95;1.23;;;17.80;83.10;;;;;;4896678;29;20036;-61
2022/08/28 08:17:05;;;;;;;6.93;2.22;;;17.90;82.00;;;;;;4897583;29;20084;-61
2022/08/28 08:19:31;;;;;;;4.82;1.60;;;18.10;80.80;;;;;;4897227;29;20442;-61
2022/08/28 08:21:57;;;;;;;3.30;1.20;;;18.10;78.50;;;;;;4896986;29;20029;-61
2022/08/28 08:24:24;;;;;;;3.92;1.70;;;18.10;78.90;;;;;;4897329;29;20077;-60
2022/08/28 08:26:52;;;;;;;4.75;1.27;;;18.20;78.40;;;;;;4896143;29;20387;-61
2022/08/28 08:29:19;;;;;;;2.65;1.20;;;18.30;77.20;;;;;;4895547;29;20149;-61
2022/08/28 08:31:45;;;;;;;4.55;1.30;;;18.40;76.30;;;;;;4897209;29;20036;-60
2022/08/28 08:34:11;;;;;;;5.30;1.80;;;18.50;75.50;;;;;;4896707;29;20029;-61
2022/08/28 08:36:37;;;;;;;6.72;1.30;;;18.50;75.20;;;;;;4897105;29;20115;-60
2022/08/28 08:39:06;;;;;;;4.82;1.30;;;18.50;75.30;;;;;;4896864;29;20032;-60
2022/08/28 08:41:47;;;;;;;3.08;1.20;;;18.50;75.00;;;;;;4895913;29;20460;-60
2022/08/28 08:44:40;;;;;;;4.63;1.52;;;18.60;74.50;;;;;;4897183;29;20104;-60
2022/08/28 08:47:14;;;;;;;7.05;1.30;;;18.50;74.30;;;;;;4890805;29;20398;-60
2022/08/28 08:49:55;;;;;;;4.68;1.30;;;18.60;73.50;;;;;;4877438;29;20029;-60
2022/08/28 08:52:35;;;;;;;4.93;1.23;;;18.50;73.60;;;;;;4878297;29;20029;-60
2022/08/28 08:55:26;;;;;;;5.80;1.38;;;18.40;73.40;;;;;;4877747;29;20081;-61
2022/08/28 08:58:10;;;;;;;3.70;1.40;;;18.50;74.00;;;;;;4878035;29;20047;-61
2022/08/28 09:00:50;;;;;;;3.35;1.00;;;18.60;73.80;;;;;;4890821;29;20036;-60
2022/08/28 09:03:43;;;;;;;4.07;1.20;;;18.80;71.90;;;;;;4895354;29;20033;-61
2022/08/28 09:06:20;;;;;;;4.30;1.45;;;18.90;72.40;;;;;;4895732;29;20094;-62
2022/08/28 09:08:51;;;;;;;4.28;1.25;;;19.00;71.90;;;;;;4889228;29;20075;-62
2022/08/28 09:11:35;;;;;;;3.80;1.23;;;19.10;71.60;;;;;;4895527;29;20545;-62
2022/08/28 09:14:13;;;;;;;3.95;1.25;;;19.20;70.90;;;;;;4894815;29;20059;-61
2022/08/28 09:16:43;;;;;;;3.95;1.13;;;19.30;70.00;;;;;;4896152;29;20378;-61
2022/08/28 09:19:13;;;;;;;3.30;1.05;;;19.40;69.90;;;;;;4881552;29;20076;-62
2022/08/28 09:21:42;;;;;;;5.35;1.60;;;19.40;69.10;;;;;;4878195;29;20025;-62
2022/08/28 09:24:32;;;;;;;3.10;1.02;;;19.60;68.40;;;;;;4884882;29;20040;-62
2022/08/28 09:27:25;;;;;;;3.05;0.77;;;19.70;67.10;;;;;;4896068;29;20084;-62
2022/08/28 09:30:11;;;;;;;4.13;1.00;;;20.00;66.40;;;;;;4894628;29;20037;-61
2022/08/28 09:32:45;;;;;;;2.15;1.02;;;20.20;65.40;;;;;;4896109;29;20055;-62
2022/08/28 09:35:20;;;;;;;5.63;1.55;;;20.20;65.30;;;;;;4890709;29;20032;-62
2022/08/28 09:37:46;;;;;;;4.18;1.15;;;20.20;64.50;;;;;;4877260;29;20483;-62
2022/08/28 09:40:23;;;;;;;3.90;1.05;;;20.30;64.50;;;;;;4885159;29;20036;-62
2022/08/28 09:46:08;;;;;;;;;;;20.40;63.10;;;;;;4885442;29;20052;-62
2022/08/28 09:48:36;;;;;;;4.68;1.33;;;20.30;62.00;;;;;;4882068;29;19908;-63
2022/08/28 09:51:07;;;;;;;4.07;1.10;;;20.30;63.80;;;;;;4886048;29;20036;-62
2022/08/28 09:53:36;;;;;;;5.32;1.50;;;20.40;63.50;;;;;;4897576;29;20025;-62
2022/08/28 09:56:16;;;;;;;4.13;1.35;;;20.60;62.90;;;;;;4899171;29;20029;-62
2022/08/28 09:58:53;;;;;;;2.60;0.88;;;20.70;61.90;;;;;;4893064;29;20025;-61
2022/08/28 10:01:40;;;;;;;3.60;1.00;;;20.80;61.00;;;;;;4893699;29;20056;-62
2022/08/28 10:04:18;;;;;;;1.50;0.77;;;21.00;60.60;;;;;;4898720;29;20068;-62
2022/08/28 10:06:50;;;;;;;4.78;1.10;;;21.20;60.30;;;;;;4898846;29;20028;-62
2022/08/28 10:09:49;;;;;;;3.85;1.25;;;21.30;59.30;;;;;;4898698;29;20048;-61
2022/08/28 10:12:40;;;;;;;2.20;0.93;;;21.20;58.60;;;;;;4914200;29;20032;-61
2022/08/28 10:15:45;;;;;;;3.78;1.33;;;21.10;59.50;;;;;;4894191;29;20115;-62
2022/08/28 10:18:29;;;;;;;4.30;1.23;;;21.10;59.20;;;;;;4880644;29;20048;-61
2022/08/28 10:21:30;;;;;;;4.13;1.20;;;21.00;59.80;;;;;;4879259;29;20494;-62
2022/08/28 10:24:14;;;;;;;3.35;1.10;;;21.00;59.80;;;;;;4886991;29;20037;-62
2022/08/28 10:27:07;;;;;;;3.47;1.27;;;20.80;60.10;;;;;;4898075;29;20505;-61
2022/08/28 10:29:48;;;;;;;4.57;1.63;;;20.80;60.50;;;;;;4898355;29;20032;-62
2022/08/28 10:32:36;;;;;;;3.55;1.42;;;20.90;60.60;;;;;;4895457;29;20485;-63
2022/08/28 10:35:33;;;;;;;3.10;1.25;;;21.10;59.70;;;;;;4910766;29;20478;-65
2022/08/28 10:38:02;;;;;;;4.78;1.00;;;21.20;58.90;;;;;;4899405;29;20380;-63
2022/08/28 10:40:36;;;;;;;4.82;1.45;;;21.30;59.10;;;;;;4896329;29;20052;-64
2022/08/28 10:43:13;;;;;;;2.03;0.93;;;21.30;59.10;;;;;;4893493;29;20050;-66
2022/08/28 10:45:40;;;;;;;2.67;1.10;;;21.20;59.00;;;;;;4897418;29;20047;-67
2022/08/28 10:48:19;;;;;;;6.25;1.00;;;21.10;58.90;;;;;;4878649;29;20028;-66
2022/08/28 10:51:05;;;;;;;3.10;1.10;;;21.10;59.60;;;;;;4894961;29;20036;-68
2022/08/28 10:53:38;;;;;;;3.08;1.02;;;21.30;58.90;;;;;;4897334;29;20048;-64
2022/08/28 10:56:09;;;;;;;4.90;1.10;;;21.50;58.40;;;;;;4898583;29;20025;-65
2022/08/28 10:58:38;;;;;;;3.38;1.05;;;21.70;57.50;;;;;;4893819;29;20052;-66
2022/08/28 11:01:08;;;;;;;2.65;1.23;;;22.00;57.30;;;;;;4898771;29;20378;-67
2022/08/28 11:03:43;;;;;;;1.52;0.73;;;22.20;56.10;;;;;;4897493;29;20031;-66
2022/08/28 11:06:47;;;;;;;4.15;1.20;;;22.10;55.70;;;;;;4898688;29;20466;-66
2022/08/28 11:09:25;;;;;;;1.35;0.93;;;21.90;56.30;;;;;;4898431;29;20041;-67
2022/08/28 11:11:56;;;;;;;5.78;1.08;;;21.70;56.60;;;;;;4898517;29;20075;-65
2022/08/28 11:14:34;;;;;;;2.25;1.20;;;21.60;56.60;;;;;;4898040;29;20073;-67
2022/08/28 11:17:26;;;;;;;3.83;1.40;;;21.80;57.20;;;;;;4898762;29;20024;-67
2022/08/28 11:20:11;;;;;;;5.50;1.10;;;22.10;56.10;;;;;;4889384;29;20045;-65
2022/08/28 11:22:41;;;;;;;2.72;1.17;;;22.40;54.80;;;;;;4897641;29;20047;-64
2022/08/28 11:25:17;;;;;;;3.35;1.08;;;22.50;54.20;;;;;;4898135;29;20041;-63
2022/08/28 11:28:22;;;;;;;3.47;0.90;;;22.40;53.90;;;;;;4897676;29;20465;-68
2022/08/28 11:31:02;;;;;;;2.47;1.00;;;22.30;54.10;;;;;;4887725;29;20501;-66
2022/08/28 11:33:48;;;;;;;5.47;1.33;;;22.10;54.20;;;;;;4896826;29;20036;-65
2022/08/28 11:36:40;;;;;;;3.78;1.08;;;22.00;54.70;;;;;;4897633;29;20324;-67
2022/08/28 11:39:18;;;;;;;3.08;1.13;;;22.10;54.80;;;;;;4898052;29;20118;-68
2022/08/28 11:42:08;;;;;;;2.95;0.95;;;22.40;54.50;;;;;;4897773;29;20039;-68
2022/08/28 11:44:40;;;;;;;3.25;0.85;;;22.60;51.90;;;;;;4897738;29;20040;-68
2022/08/28 11:47:40;;;;;;;4.97;1.10;;;22.50;51.30;;;;;;4896516;29;20064;-67
2022/08/28 11:50:20;;;;;;;2.22;0.90;;;22.40;52.20;;;;;;4897513;29;20025;-65
2022/08/28 11:53:07;;;;;;;2.45;1.10;;;22.40;52.60;;;;;;4896130;29;20054;-68
2022/08/28 11:56:05;;;;;;;1.90;0.70;;;22.50;52.20;;;;;;4897660;29;20079;-69
2022/08/28 11:58:45;;;;;;;7.78;1.10;;;22.50;52.40;;;;;;4873271;29;20047;-63
2022/08/28 12:01:13;;;;;;;3.65;1.27;;;22.50;52.50;;;;;;4897932;29;20033;-66
2022/08/28 12:03:57;;;;;;;3.13;0.90;;;22.30;52.10;;;;;;4896635;29;20048;-64
2022/08/28 12:07:01;;;;;;;1.30;0.90;;;22.10;51.90;;;;;;4897758;29;20060;-66
2022/08/28 12:09:48;;;;;;;4.38;1.02;;;22.10;52.40;;;;;;4896919;29;20383;-68
2022/08/28 12:12:19;;;;;;;3.45;1.00;;;22.30;52.00;;;;;;4896903;29;20032;-69
2022/08/28 12:14:45;;;;;;;3.78;1.00;;;22.50;51.50;;;;;;4897161;29;20032;-69
2022/08/28 12:17:13;;;;;;;2.33;0.80;;;22.60;50.70;;;;;;4896571;29;20343;-69
2022/08/28 12:19:48;;;;;;;4.72;1.80;;;22.50;50.90;;;;;;4895776;29;20028;-68
2022/08/28 12:22:20;;;;;;;3.50;1.20;;;22.50;50.90;;;;;;4897194;29;20028;-68
2022/08/28 12:24:55;;;;;;;3.65;1.08;;;22.50;50.20;;;;;;4894749;29;20081;-68
2022/08/28 12:27:22;;;;;;;2.55;1.05;;;22.50;50.70;;;;;;4910553;29;20330;-69
2022/08/28 12:29:55;;;;;;;3.13;1.00;;;22.40;50.40;;;;;;4891375;29;20043;-63
2022/08/28 12:32:48;;;;;;;2.17;0.88;;;22.30;50.70;;;;;;4892768;29;20435;-69
2022/08/28 12:35:21;;;;;;;6.05;1.30;;;22.20;51.80;;;;;;4867438;29;20053;-68
2022/08/28 12:37:53;;;;;;;1.75;1.05;;;22.40;51.70;;;;;;4885250;29;20083;-66
2022/08/28 12:40:26;;;;;;;2.00;0.90;;;22.60;52.60;;;;;;4885235;29;20028;-65
2022/08/28 12:43:21;;;;;;;3.28;1.08;;;22.90;50.20;;;;;;4884379;29;20036;-65
2022/08/28 12:45:58;;;;;;;2.38;1.08;;;23.00;48.40;;;;;;4872896;29;20447;-64
2022/08/28 12:48:25;;;;;;;3.65;1.55;;;22.80;48.00;;;;;;4899131;29;20072;-66
2022/08/28 12:51:12;;;;;;;4.43;1.00;;;22.60;48.30;;;;;;4883010;29;20108;-66
2022/08/28 12:53:41;;;;;;;2.03;1.05;;;22.50;49.40;;;;;;4887511;29;20030;-70
2022/08/28 12:56:11;;;;;;;5.00;1.38;;;22.60;49.90;;;;;;4883130;29;20108;-64
2022/08/28 12:58:39;;;;;;;1.75;1.00;;;22.70;48.50;;;;;;4881184;29;20032;-64
2022/08/28 13:01:29;;;;;;;2.50;0.98;;;22.80;48.80;;;;;;4881069;29;20422;-64
2022/08/28 13:04:02;;;;;;;4.10;1.93;;;22.90;49.20;;;;;;4880500;29;20049;-65
2022/08/28 13:06:31;;;;;;;2.58;1.17;;;22.80;49.60;;;;;;4882240;29;20056;-62
2022/08/28 13:09:00;;;;;;;3.13;1.00;;;22.80;50.10;;;;;;4885668;29;20402;-64
2022/08/28 13:11:30;;;;;;;2.15;1.10;;;22.80;50.90;;;;;;4882877;29;20041;-63
2022/08/28 13:13:56;;;;;;;4.23;1.20;;;22.90;50.60;;;;;;4882604;29;20127;-64